< < Back
Terminal Aerodrome Forecast


Current Version              Previous Versions:   1  2  3  4  5  6  7  8  9  

Terminal Aerodrome Forecast

837
FTUS42 KFFC 210500 RRA
TAFCSG
TAF
KCSG 210542Z 2106/2206 00000KT P6SM FEW120
     FM211500 30005KT P6SM FEW250
     FM211800 32008G14KT P6SM FEW250
     FM220000 34003KT P6SM SKC=

Latest METAR

574
SAUS70 KWBC 211000 RRA
MTRCSG
METAR KCSG 210951Z AUTO 00000KT 10SM CLR 11/10 A3000 RMK AO2 SLP157
T01110100


USA.gov is the U.S. government's official web portal to all federal, state and local government web resources and services.